sensor_id;sensor_type;location;lat;lon;timestamp;temperature;humidity
3268;DHT22;1646;52.450;13.326;2023-02-13T00:04:49;9.20;99.90
3268;DHT22;1646;52.450;13.326;2023-02-13T00:09:47;9.20;99.90
3268;DHT22;1646;52.450;13.326;2023-02-13T00:14:45;9.30;99.90
3268;DHT22;1646;52.450;13.326;2023-02-13T00:19:45;9.20;99.90
3268;DHT22;1646;52.450;13.326;2023-02-13T00:24:43;9.10;99.90
3268;DHT22;1646;52.450;13.326;2023-02-13T00:29:41;9.20;99.90
3268;DHT22;1646;52.450;13.326;2023-02-13T00:34:40;9.20;99.90
3268;DHT22;1646;52.450;13.326;2023-02-13T00:39:41;9.30;99.90
3268;DHT22;1646;52.450;13.326;2023-02-13T00:44:39;9.30;99.90
3268;DHT22;1646;52.450;13.326;2023-02-13T00:49:37;9.30;99.90
3268;DHT22;1646;52.450;13.326;2023-02-13T00:54:36;9.30;99.90
3268;DHT22;1646;52.450;13.326;2023-02-13T00:59:36;9.20;99.90
3268;DHT22;1646;52.450;13.326;2023-02-13T01:04:34;9.10;99.90
3268;DHT22;1646;52.450;13.326;2023-02-13T01:09:33;9.10;99.90
3268;DHT22;1646;52.450;13.326;2023-02-13T01:14:31;9.20;99.90
3268;DHT22;1646;52.450;13.326;2023-02-13T01:19:31;9.20;99.90
3268;DHT22;1646;52.450;13.326;2023-02-13T01:24:30;9.30;99.90
3268;DHT22;1646;52.450;13.326;2023-02-13T01:29:30;9.30;99.90
3268;DHT22;1646;52.450;13.326;2023-02-13T01:34:32;9.30;99.90
3268;DHT22;1646;52.450;13.326;2023-02-13T01:39:30;9.20;99.90
3268;DHT22;1646;52.450;13.326;2023-02-13T01:44:50;9.20;99.90
3268;DHT22;1646;52.450;13.326;2023-02-13T01:49:56;9.20;99.90
3268;DHT22;1646;52.450;13.326;2023-02-13T01:54:56;9.30;99.90
3268;DHT22;1646;52.450;13.326;2023-02-13T01:59:58;9.20;99.90
3268;DHT22;1646;52.450;13.326;2023-02-13T02:05:00;9.20;99.90
3268;DHT22;1646;52.450;13.326;2023-02-13T02:10:02;9.10;99.90
3268;DHT22;1646;52.450;13.326;2023-02-13T02:15:03;9.10;99.90
3268;DHT22;1646;52.450;13.326;2023-02-13T02:20:14;9.00;99.90
3268;DHT22;1646;52.450;13.326;2023-02-13T02:25:44;9.00;99.90
3268;DHT22;1646;52.450;13.326;2023-02-13T02:36:25;8.80;99.90
3268;DHT22;1646;52.450;13.326;2023-02-13T02:41:36;8.80;99.90
3268;DHT22;1646;52.450;13.326;2023-02-13T02:46:54;8.70;99.90
3268;DHT22;1646;52.450;13.326;2023-02-13T02:52:16;8.60;99.90
3268;DHT22;1646;52.450;13.326;2023-02-13T02:57:19;8.60;99.90
3268;DHT22;1646;52.450;13.326;2023-02-13T03:02:25;8.70;99.90
3268;DHT22;1646;52.450;13.326;2023-02-13T03:07:44;8.70;99.90
3268;DHT22;1646;52.450;13.326;2023-02-13T03:12:48;8.70;99.90
3268;DHT22;1646;52.450;13.326;2023-02-13T03:18:08;8.70;99.90
3268;DHT22;1646;52.450;13.326;2023-02-13T03:23:33;8.80;99.90
3268;DHT22;1646;52.450;13.326;2023-02-13T03:28:37;8.80;99.90
3268;DHT22;1646;52.450;13.326;2023-02-13T03:34:00;8.80;99.90
3268;DHT22;1646;52.450;13.326;2023-02-13T03:39:05;8.80;99.90
3268;DHT22;1646;52.450;13.326;2023-02-13T03:44:10;8.80;99.90
3268;DHT22;1646;52.450;13.326;2023-02-13T03:49:16;8.80;99.90
3268;DHT22;1646;52.450;13.326;2023-02-13T03:54:38;8.80;99.90
3268;DHT22;1646;52.450;13.326;2023-02-13T03:59:57;8.70;99.90
3268;DHT22;1646;52.450;13.326;2023-02-13T04:05:13;8.70;99.90
3268;DHT22;1646;52.450;13.326;2023-02-13T04:10:15;8.60;99.90
3268;DHT22;1646;52.450;13.326;2023-02-13T04:15:17;8.60;99.90
3268;DHT22;1646;52.450;13.326;2023-02-13T04:20:17;8.60;99.90
3268;DHT22;1646;52.450;13.326;2023-02-13T04:25:18;8.60;99.90
3268;DHT22;1646;52.450;13.326;2023-02-13T04:30:17;8.60;99.90
3268;DHT22;1646;52.450;13.326;2023-02-13T04:35:15;8.60;99.90
3268;DHT22;1646;52.450;13.326;2023-02-13T04:40:14;8.60;99.90
3268;DHT22;1646;52.450;13.326;2023-02-13T04:45:13;8.50;99.90
3268;DHT22;1646;52.450;13.326;2023-02-13T04:50:12;8.50;99.90
3268;DHT22;1646;52.450;13.326;2023-02-13T04:55:10;8.50;99.90
3268;DHT22;1646;52.450;13.326;2023-02-13T05:00:09;8.60;99.90
3268;DHT22;1646;52.450;13.326;2023-02-13T05:05:10;8.60;99.90
3268;DHT22;1646;52.450;13.326;2023-02-13T05:10:08;8.60;99.90
3268;DHT22;1646;52.450;13.326;2023-02-13T05:15:08;8.60;99.90
3268;DHT22;1646;52.450;13.326;2023-02-13T05:20:07;8.60;99.90
3268;DHT22;1646;52.450;13.326;2023-02-13T05:25:07;8.50;99.90
3268;DHT22;1646;52.450;13.326;2023-02-13T05:30:06;8.50;99.90
3268;DHT22;1646;52.450;13.326;2023-02-13T05:35:05;8.50;99.90
3268;DHT22;1646;52.450;13.326;2023-02-13T05:40:04;8.60;99.90
3268;DHT22;1646;52.450;13.326;2023-02-13T05:45:04;8.60;99.90
3268;DHT22;1646;52.450;13.326;2023-02-13T05:50:03;8.60;99.90
3268;DHT22;1646;52.450;13.326;2023-02-13T05:55:02;8.60;99.90
3268;DHT22;1646;52.450;13.326;2023-02-13T06:00:04;8.60;99.90
3268;DHT22;1646;52.450;13.326;2023-02-13T06:05:04;8.70;99.90
3268;DHT22;1646;52.450;13.326;2023-02-13T06:10:02;8.60;99.90
3268;DHT22;1646;52.450;13.326;2023-02-13T06:15:00;8.60;99.90
3268;DHT22;1646;52.450;13.326;2023-02-13T06:20:00;8.60;99.90
3268;DHT22;1646;52.450;13.326;2023-02-13T06:24:58;8.60;99.90
3268;DHT22;1646;52.450;13.326;2023-02-13T06:29:57;8.50;99.90
3268;DHT22;1646;52.450;13.326;2023-02-13T06:34:55;8.50;99.90
3268;DHT22;1646;52.450;13.326;2023-02-13T06:39:54;8.40;99.90
3268;DHT22;1646;52.450;13.326;2023-02-13T06:44:53;8.40;99.90
3268;DHT22;1646;52.450;13.326;2023-02-13T06:49:51;8.50;99.90
3268;DHT22;1646;52.450;13.326;2023-02-13T06:54:49;8.60;99.90
3268;DHT22;1646;52.450;13.326;2023-02-13T06:59:49;8.60;99.90
3268;DHT22;1646;52.450;13.326;2023-02-13T07:04:47;8.60;99.90
3268;DHT22;1646;52.450;13.326;2023-02-13T07:09:45;8.70;99.90
3268;DHT22;1646;52.450;13.326;2023-02-13T07:14:43;8.80;99.90
3268;DHT22;1646;52.450;13.326;2023-02-13T07:19:43;8.90;99.90
3268;DHT22;1646;52.450;13.326;2023-02-13T07:24:41;8.90;99.90
3268;DHT22;1646;52.450;13.326;2023-02-13T07:29:40;8.90;99.90
3268;DHT22;1646;52.450;13.326;2023-02-13T07:34:38;9.00;99.90
3268;DHT22;1646;52.450;13.326;2023-02-13T07:39:57;9.10;99.90
3268;DHT22;1646;52.450;13.326;2023-02-13T07:44:55;9.00;99.90
3268;DHT22;1646;52.450;13.326;2023-02-13T07:49:53;8.90;99.90
3268;DHT22;1646;52.450;13.326;2023-02-13T07:54:51;8.80;99.90
3268;DHT22;1646;52.450;13.326;2023-02-13T07:59:51;8.70;99.90
3268;DHT22;1646;52.450;13.326;2023-02-13T08:04:49;8.70;99.90
3268;DHT22;1646;52.450;13.326;2023-02-13T08:09:47;8.90;99.90
3268;DHT22;1646;52.450;13.326;2023-02-13T08:15:06;9.00;99.90
3268;DHT22;1646;52.450;13.326;2023-02-13T08:20:07;8.90;99.90
3268;DHT22;1646;52.450;13.326;2023-02-13T08:25:06;8.90;99.90
3268;DHT22;1646;52.450;13.326;2023-02-13T08:30:07;9.00;99.90
3268;DHT22;1646;52.450;13.326;2023-02-13T08:35:06;9.00;99.90
3268;DHT22;1646;52.450;13.326;2023-02-13T08:40:05;9.00;99.90
3268;DHT22;1646;52.450;13.326;2023-02-13T08:45:08;9.00;99.90
3268;DHT22;1646;52.450;13.326;2023-02-13T08:50:08;9.00;99.90
3268;DHT22;1646;52.450;13.326;2023-02-13T08:55:06;8.90;99.90
3268;DHT22;1646;52.450;13.326;2023-02-13T09:00:07;8.80;99.90
3268;DHT22;1646;52.450;13.326;2023-02-13T09:05:06;8.80;99.90
3268;DHT22;1646;52.450;13.326;2023-02-13T09:10:06;8.90;99.90
3268;DHT22;1646;52.450;13.326;2023-02-13T09:15:04;8.90;99.90
3268;DHT22;1646;52.450;13.326;2023-02-13T09:20:05;8.90;99.90
3268;DHT22;1646;52.450;13.326;2023-02-13T09:25:04;8.90;99.90
3268;DHT22;1646;52.450;13.326;2023-02-13T09:30:03;8.80;99.90
3268;DHT22;1646;52.450;13.326;2023-02-13T09:35:01;8.90;99.90
3268;DHT22;1646;52.450;13.326;2023-02-13T09:40:01;8.90;99.90
3268;DHT22;1646;52.450;13.326;2023-02-13T09:45:02;8.90;99.90
3268;DHT22;1646;52.450;13.326;2023-02-13T09:50:05;8.80;99.90
3268;DHT22;1646;52.450;13.326;2023-02-13T09:55:13;8.80;99.90
3268;DHT22;1646;52.450;13.326;2023-02-13T10:00:15;8.90;99.90
3268;DHT22;1646;52.450;13.326;2023-02-13T10:05:27;8.90;99.90
3268;DHT22;1646;52.450;13.326;2023-02-13T10:10:33;8.90;99.90
3268;DHT22;1646;52.450;13.326;2023-02-13T10:15:40;8.90;99.90
3268;DHT22;1646;52.450;13.326;2023-02-13T10:20:44;9.00;99.90
3268;DHT22;1646;52.450;13.326;2023-02-13T10:25:51;8.80;99.90
3268;DHT22;1646;52.450;13.326;2023-02-13T10:30:53;9.00;99.90
3268;DHT22;1646;52.450;13.326;2023-02-13T10:35:57;9.20;99.90
3268;DHT22;1646;52.450;13.326;2023-02-13T10:41:13;9.40;99.90
3268;DHT22;1646;52.450;13.326;2023-02-13T10:46:21;9.60;99.90
3268;DHT22;1646;52.450;13.326;2023-02-13T10:51:28;9.70;99.90
3268;DHT22;1646;52.450;13.326;2023-02-13T10:56:32;9.70;99.90
3268;DHT22;1646;52.450;13.326;2023-02-13T11:01:35;9.50;99.90
3268;DHT22;1646;52.450;13.326;2023-02-13T11:06:38;9.40;99.90
3268;DHT22;1646;52.450;13.326;2023-02-13T11:11:41;9.40;99.90
3268;DHT22;1646;52.450;13.326;2023-02-13T11:16:48;9.50;99.90
3268;DHT22;1646;52.450;13.326;2023-02-13T11:21:52;9.40;99.90
3268;DHT22;1646;52.450;13.326;2023-02-13T11:26:59;9.40;99.90
3268;DHT22;1646;52.450;13.326;2023-02-13T11:32:09;9.40;99.90
3268;DHT22;1646;52.450;13.326;2023-02-13T11:37:24;9.40;99.90
3268;DHT22;1646;52.450;13.326;2023-02-13T11:42:30;9.40;99.90
3268;DHT22;1646;52.450;13.326;2023-02-13T11:47:34;9.60;99.90
3268;DHT22;1646;52.450;13.326;2023-02-13T11:52:34;9.80;99.90
3268;DHT22;1646;52.450;13.326;2023-02-13T11:57:35;9.90;99.90
3268;DHT22;1646;52.450;13.326;2023-02-13T12:02:46;10.00;99.90
3268;DHT22;1646;52.450;13.326;2023-02-13T12:07:46;10.00;99.90
3268;DHT22;1646;52.450;13.326;2023-02-13T12:12:52;10.10;99.90
3268;DHT22;1646;52.450;13.326;2023-02-13T12:18:08;9.90;99.90
3268;DHT22;1646;52.450;13.326;2023-02-13T12:23:16;9.80;99.90
3268;DHT22;1646;52.450;13.326;2023-02-13T12:28:22;9.80;99.90
3268;DHT22;1646;52.450;13.326;2023-02-13T12:33:38;9.90;99.90
3268;DHT22;1646;52.450;13.326;2023-02-13T12:38:53;10.10;99.90
3268;DHT22;1646;52.450;13.326;2023-02-13T12:44:06;10.30;99.90
3268;DHT22;1646;52.450;13.326;2023-02-13T12:49:21;10.20;99.90
3268;DHT22;1646;52.450;13.326;2023-02-13T12:54:33;10.00;99.90
3268;DHT22;1646;52.450;13.326;2023-02-13T12:59:46;10.00;99.90
3268;DHT22;1646;52.450;13.326;2023-02-13T13:05:02;10.00;99.90
3268;DHT22;1646;52.450;13.326;2023-02-13T13:10:30;10.00;99.90
3268;DHT22;1646;52.450;13.326;2023-02-13T13:15:39;9.90;99.90
3268;DHT22;1646;52.450;13.326;2023-02-13T13:20:56;9.90;99.90
3268;DHT22;1646;52.450;13.326;2023-02-13T13:26:02;9.80;99.90
3268;DHT22;1646;52.450;13.326;2023-02-13T13:31:04;9.90;99.90
3268;DHT22;1646;52.450;13.326;2023-02-13T13:36:06;9.90;99.90
3268;DHT22;1646;52.450;13.326;2023-02-13T13:41:10;9.80;99.90
3268;DHT22;1646;52.450;13.326;2023-02-13T13:46:18;9.90;99.90
3268;DHT22;1646;52.450;13.326;2023-02-13T13:51:21;9.90;99.90
3268;DHT22;1646;52.450;13.326;2023-02-13T13:56:21;9.90;99.90
3268;DHT22;1646;52.450;13.326;2023-02-13T14:01:25;9.80;99.90
3268;DHT22;1646;52.450;13.326;2023-02-13T14:06:27;9.90;99.90
3268;DHT22;1646;52.450;13.326;2023-02-13T14:11:32;9.90;99.90
3268;DHT22;1646;52.450;13.326;2023-02-13T14:16:39;9.90;99.90
3268;DHT22;1646;52.450;13.326;2023-02-13T14:21:38;9.70;99.90
3268;DHT22;1646;52.450;13.326;2023-02-13T14:26:38;9.60;99.90
3268;DHT22;1646;52.450;13.326;2023-02-13T14:31:40;9.50;99.90
3268;DHT22;1646;52.450;13.326;2023-02-13T14:36:42;9.50;99.90
3268;DHT22;1646;52.450;13.326;2023-02-13T14:41:43;9.60;99.90
3268;DHT22;1646;52.450;13.326;2023-02-13T14:46:46;9.60;99.90
3268;DHT22;1646;52.450;13.326;2023-02-13T14:51:47;9.50;99.90
3268;DHT22;1646;52.450;13.326;2023-02-13T14:56:48;9.50;99.90
3268;DHT22;1646;52.450;13.326;2023-02-13T15:01:52;9.60;99.90
3268;DHT22;1646;52.450;13.326;2023-02-13T15:06:53;9.70;99.90
3268;DHT22;1646;52.450;13.326;2023-02-13T15:11:52;9.60;99.90
3268;DHT22;1646;52.450;13.326;2023-02-13T15:16:55;9.60;99.90
3268;DHT22;1646;52.450;13.326;2023-02-13T15:21:56;9.40;99.90
3268;DHT22;1646;52.450;13.326;2023-02-13T15:27:02;9.30;99.90
3268;DHT22;1646;52.450;13.326;2023-02-13T15:32:16;9.30;99.90
3268;DHT22;1646;52.450;13.326;2023-02-13T15:37:23;9.10;99.90
3268;DHT22;1646;52.450;13.326;2023-02-13T15:42:21;8.90;99.90
3268;DHT22;1646;52.450;13.326;2023-02-13T15:47:25;8.90;99.90
3268;DHT22;1646;52.450;13.326;2023-02-13T15:52:29;8.90;99.90
3268;DHT22;1646;52.450;13.326;2023-02-13T15:57:28;9.00;99.90
3268;DHT22;1646;52.450;13.326;2023-02-13T16:02:33;9.10;99.90
3268;DHT22;1646;52.450;13.326;2023-02-13T16:07:46;9.10;99.90
3268;DHT22;1646;52.450;13.326;2023-02-13T16:12:46;9.10;99.90
3268;DHT22;1646;52.450;13.326;2023-02-13T16:17:47;9.00;99.90
3268;DHT22;1646;52.450;13.326;2023-02-13T16:22:47;9.00;99.90
3268;DHT22;1646;52.450;13.326;2023-02-13T16:27:48;9.10;99.90
3268;DHT22;1646;52.450;13.326;2023-02-13T16:32:48;9.00;99.90
3268;DHT22;1646;52.450;13.326;2023-02-13T16:37:51;9.10;99.90
3268;DHT22;1646;52.450;13.326;2023-02-13T16:42:52;9.20;99.90
3268;DHT22;1646;52.450;13.326;2023-02-13T16:47:59;9.30;99.90
3268;DHT22;1646;52.450;13.326;2023-02-13T16:53:00;9.40;99.90
3268;DHT22;1646;52.450;13.326;2023-02-13T16:58:01;9.40;99.90
3268;DHT22;1646;52.450;13.326;2023-02-13T17:03:07;9.30;99.90
3268;DHT22;1646;52.450;13.326;2023-02-13T17:08:06;9.20;99.90
3268;DHT22;1646;52.450;13.326;2023-02-13T17:13:14;9.10;99.90
3268;DHT22;1646;52.450;13.326;2023-02-13T17:18:14;9.20;99.90
3268;DHT22;1646;52.450;13.326;2023-02-13T17:23:15;9.20;99.90
3268;DHT22;1646;52.450;13.326;2023-02-13T17:28:15;9.20;99.90
3268;DHT22;1646;52.450;13.326;2023-02-13T17:33:20;9.20;99.90
3268;DHT22;1646;52.450;13.326;2023-02-13T17:38:19;9.20;99.90
3268;DHT22;1646;52.450;13.326;2023-02-13T17:43:18;9.30;99.90
3268;DHT22;1646;52.450;13.326;2023-02-13T17:48:18;9.30;99.90
3268;DHT22;1646;52.450;13.326;2023-02-13T17:53:20;9.30;99.90
3268;DHT22;1646;52.450;13.326;2023-02-13T17:58:19;9.30;99.90
3268;DHT22;1646;52.450;13.326;2023-02-13T18:03:19;9.20;99.90
3268;DHT22;1646;52.450;13.326;2023-02-13T18:08:18;9.20;99.90
3268;DHT22;1646;52.450;13.326;2023-02-13T18:13:16;9.20;99.90
3268;DHT22;1646;52.450;13.326;2023-02-13T18:18:17;9.20;99.90
3268;DHT22;1646;52.450;13.326;2023-02-13T18:25:21;9.30;99.90
3268;DHT22;1646;52.450;13.326;2023-02-13T18:30:20;9.20;99.90
3268;DHT22;1646;52.450;13.326;2023-02-13T18:35:19;9.10;99.90
3268;DHT22;1646;52.450;13.326;2023-02-13T18:40:17;9.10;99.90
3268;DHT22;1646;52.450;13.326;2023-02-13T18:45:18;9.10;99.90
3268;DHT22;1646;52.450;13.326;2023-02-13T18:50:16;9.00;99.90
3268;DHT22;1646;52.450;13.326;2023-02-13T18:55:14;9.10;99.90
3268;DHT22;1646;52.450;13.326;2023-02-13T19:00:13;9.10;99.90
3268;DHT22;1646;52.450;13.326;2023-02-13T19:05:14;9.00;99.90
3268;DHT22;1646;52.450;13.326;2023-02-13T19:10:13;9.00;99.90
3268;DHT22;1646;52.450;13.326;2023-02-13T19:15:12;9.00;99.90
3268;DHT22;1646;52.450;13.326;2023-02-13T19:20:10;9.00;99.90
3268;DHT22;1646;52.450;13.326;2023-02-13T19:25:14;8.90;99.90
3268;DHT22;1646;52.450;13.326;2023-02-13T19:30:12;8.90;99.90
3268;DHT22;1646;52.450;13.326;2023-02-13T19:35:10;8.90;99.90
3268;DHT22;1646;52.450;13.326;2023-02-13T19:40:10;8.90;99.90
3268;DHT22;1646;52.450;13.326;2023-02-13T19:45:10;8.80;99.90
3268;DHT22;1646;52.450;13.326;2023-02-13T19:50:09;8.90;99.90
3268;DHT22;1646;52.450;13.326;2023-02-13T19:55:07;8.70;99.90
3268;DHT22;1646;52.450;13.326;2023-02-13T20:00:07;8.70;99.90
3268;DHT22;1646;52.450;13.326;2023-02-13T20:05:09;8.70;99.90
3268;DHT22;1646;52.450;13.326;2023-02-13T20:10:08;8.60;99.90
3268;DHT22;1646;52.450;13.326;2023-02-13T20:15:07;8.70;99.90
3268;DHT22;1646;52.450;13.326;2023-02-13T20:20:06;8.70;99.90
3268;DHT22;1646;52.450;13.326;2023-02-13T20:25:06;8.70;99.90
3268;DHT22;1646;52.450;13.326;2023-02-13T20:30:06;8.80;99.90
3268;DHT22;1646;52.450;13.326;2023-02-13T20:35:05;8.80;99.90
3268;DHT22;1646;52.450;13.326;2023-02-13T20:40:04;8.70;99.90
3268;DHT22;1646;52.450;13.326;2023-02-13T20:45:04;8.70;99.90
3268;DHT22;1646;52.450;13.326;2023-02-13T20:50:03;8.70;99.90
3268;DHT22;1646;52.450;13.326;2023-02-13T20:55:02;8.70;99.90
3268;DHT22;1646;52.450;13.326;2023-02-13T21:00:00;8.70;99.90
3268;DHT22;1646;52.450;13.326;2023-02-13T21:05:01;8.70;99.90
3268;DHT22;1646;52.450;13.326;2023-02-13T21:09:59;8.80;99.90
3268;DHT22;1646;52.450;13.326;2023-02-13T21:14:57;8.70;99.90
3268;DHT22;1646;52.450;13.326;2023-02-13T21:19:55;8.70;99.90
3268;DHT22;1646;52.450;13.326;2023-02-13T21:24:55;8.60;99.90
3268;DHT22;1646;52.450;13.326;2023-02-13T21:29:53;8.60;99.90
3268;DHT22;1646;52.450;13.326;2023-02-13T21:34:54;8.50;99.90
3268;DHT22;1646;52.450;13.326;2023-02-13T21:39:52;8.50;99.90
3268;DHT22;1646;52.450;13.326;2023-02-13T21:44:52;8.50;99.90
3268;DHT22;1646;52.450;13.326;2023-02-13T21:49:50;8.50;99.90
3268;DHT22;1646;52.450;13.326;2023-02-13T21:54:48;8.60;99.90
3268;DHT22;1646;52.450;13.326;2023-02-13T21:59:46;8.60;99.90
3268;DHT22;1646;52.450;13.326;2023-02-13T22:04:46;8.60;99.90
3268;DHT22;1646;52.450;13.326;2023-02-13T22:09:45;8.60;99.90
3268;DHT22;1646;52.450;13.326;2023-02-13T22:14:43;8.70;99.90
3268;DHT22;1646;52.450;13.326;2023-02-13T22:19:41;8.70;99.90
3268;DHT22;1646;52.450;13.326;2023-02-13T22:24:41;8.60;99.90
3268;DHT22;1646;52.450;13.326;2023-02-13T22:29:39;8.70;99.90
3268;DHT22;1646;52.450;13.326;2023-02-13T22:34:37;8.70;99.90
3268;DHT22;1646;52.450;13.326;2023-02-13T22:39:35;8.60;99.90
3268;DHT22;1646;52.450;13.326;2023-02-13T22:44:36;8.60;99.90
3268;DHT22;1646;52.450;13.326;2023-02-13T22:49:35;8.60;99.90
3268;DHT22;1646;52.450;13.326;2023-02-13T22:54:33;8.70;99.90
3268;DHT22;1646;52.450;13.326;2023-02-13T22:59:31;8.60;99.90
3268;DHT22;1646;52.450;13.326;2023-02-13T23:04:36;8.60;99.90
3268;DHT22;1646;52.450;13.326;2023-02-13T23:09:34;8.60;99.90
3268;DHT22;1646;52.450;13.326;2023-02-13T23:14:33;8.70;99.90
3268;DHT22;1646;52.450;13.326;2023-02-13T23:19:31;8.60;99.90
3268;DHT22;1646;52.450;13.326;2023-02-13T23:24:30;8.60;99.90
3268;DHT22;1646;52.450;13.326;2023-02-13T23:29:29;8.60;99.90
3268;DHT22;1646;52.450;13.326;2023-02-13T23:34:27;8.60;99.90
3268;DHT22;1646;52.450;13.326;2023-02-13T23:39:25;8.60;99.90
3268;DHT22;1646;52.450;13.326;2023-02-13T23:44:25;8.50;99.90
3268;DHT22;1646;52.450;13.326;2023-02-13T23:49:23;8.50;99.90
3268;DHT22;1646;52.450;13.326;2023-02-13T23:54:23;8.60;99.90
3268;DHT22;1646;52.450;13.326;2023-02-13T23:59:23;8.60;99.90
